Time;durP1;ratioP1;P1;durP2;ratioP2;P2;SDS_P1;SDS_P2;PMS_P1;PMS_P2;Temp;Humidity;BMP_temperature;BMP_pressure;BME280_temperature;BME280_humidity;BME280_pressure;Samples;Min_cycle;Max_cycle;Signal;HPM_P1;HPM_P2
2023/03/21 00:01:26;;;;;;;5.90;4.55;;;;;;;8.45;99.02;98817.69;4171864;28;20683;-50
2023/03/21 00:03:27;;;;;;;4.78;4.43;;;;;;;8.34;98.97;98819.31;4159040;28;20680;-49
2023/03/21 00:05:29;;;;;;;4.88;4.38;;;;;;;8.33;99.32;98816.78;4173967;28;20604;-50
2023/03/21 00:07:32;;;;;;;5.22;4.03;;;;;;;8.29;99.46;98821.06;4171503;28;20612;-50
2023/03/21 00:09:34;;;;;;;4.55;3.80;;;;;;;8.28;99.25;98816.66;4174233;28;20206;-49
2023/03/21 00:11:35;;;;;;;4.75;4.13;;;;;;;8.26;99.71;98816.03;4174698;28;20282;-49
2023/03/21 00:13:41;;;;;;;4.85;4.22;;;;;;;8.40;99.77;98820.25;4173917;28;20766;-49
2023/03/21 00:15:49;;;;;;;5.97;5.47;;;;;;;8.46;99.77;98812.03;4159846;28;20205;-49
2023/03/21 00:18:10;;;;;;;11.15;10.15;;;;;;;8.33;99.54;98801.28;4173700;28;20321;-49
2023/03/21 00:20:13;;;;;;;9.65;8.73;;;;;;;8.31;99.28;98805.28;4172384;28;20718;-48
2023/03/21 00:22:15;;;;;;;9.40;8.60;;;;;;;8.27;98.98;98806.78;4156745;28;20247;-49
2023/03/21 00:24:17;;;;;;;7.10;6.47;;;;;;;8.20;99.49;98806.03;4175090;28;20358;-49
2023/03/21 00:26:18;;;;;;;7.03;6.43;;;;;;;8.03;100.00;98799.53;4174826;28;20234;-49
2023/03/21 00:28:20;;;;;;;7.30;5.13;;;;;;;7.98;100.00;98796.63;4175830;28;20637;-50
2023/03/21 00:30:22;;;;;;;6.30;4.82;;;;;;;8.01;99.91;98801.66;4177523;28;20214;-50
2023/03/21 00:32:24;;;;;;;5.75;5.30;;;;;;;7.98;99.39;98804.81;4171744;28;20224;-49
2023/03/21 00:34:27;;;;;;;3.90;3.60;;;;;;;7.99;99.99;98801.03;4174776;28;20440;-50
2023/03/21 00:36:48;;;;;;;3.95;3.55;;;;;;;7.94;99.67;98801.72;4175342;28;20200;-50
2023/03/21 00:38:50;;;;;;;3.15;2.78;;;;;;;7.93;99.70;98799.19;4174199;28;20605;-50
2023/03/21 00:40:55;;;;;;;3.58;3.25;;;;;;;7.97;99.55;98784.91;4190062;28;20827;-49
2023/03/21 00:43:00;;;;;;;3.35;3.05;;;;;;;7.96;100.00;98782.41;4190335;28;20226;-50
2023/03/21 00:45:03;;;;;;;3.25;3.03;;;;;;;7.86;99.35;98782.94;4174013;28;20307;-49
2023/03/21 00:47:05;;;;;;;2.83;2.58;;;;;;;7.81;100.00;98774.59;4171372;28;20768;-49
2023/03/21 00:49:08;;;;;;;4.93;2.22;;;;;;;7.80;100.00;98780.28;4174398;28;20689;-49
2023/03/21 00:51:14;;;;;;;3.45;3.15;;;;;;;7.80;100.00;98778.41;4175609;28;20307;-50
2023/03/21 00:53:16;;;;;;;6.68;2.50;;;;;;;7.79;99.98;98775.88;4171811;28;20227;-50
2023/03/21 00:55:18;;;;;;;4.47;2.97;;;;;;;7.84;99.94;98773.31;4173889;28;20239;-50
2023/03/21 00:57:20;;;;;;;4.10;3.00;;;;;;;7.77;100.00;98767.97;4174664;28;20212;-50
2023/03/21 00:59:39;;;;;;;3.70;2.90;;;;;;;7.79;100.00;98759.53;4174017;28;20651;-49
2023/03/21 01:01:41;;;;;;;5.47;2.95;;;;;;;7.72;100.00;98756.06;4173389;28;20236;-50
2023/03/21 01:03:49;;;;;;;3.65;3.33;;;;;;;7.70;100.00;98758.19;4172929;28;20235;-49
2023/03/21 01:06:04;;;;;;;4.35;2.92;;;;;;;7.66;100.00;98759.69;4166848;28;21275;-49
2023/03/21 01:08:06;;;;;;;4.97;3.17;;;;;;;7.65;100.00;98758.03;4194451;28;20214;-50
2023/03/21 01:10:24;;;;;;;2.55;2.03;;;;;;;7.58;100.00;98757.25;4192876;28;20227;-49
2023/03/21 01:12:27;;;;;;;2.60;2.40;;;;;;;7.57;100.00;98763.78;4158414;28;20313;-49
2023/03/21 01:14:28;;;;;;;4.10;2.17;;;;;;;7.59;100.00;98756.19;4177858;28;20327;-49
2023/03/21 01:16:30;;;;;;;3.08;2.78;;;;;;;7.60;100.00;98760.59;4175247;28;20239;-49
2023/03/21 01:18:34;;;;;;;9.27;2.83;;;;;;;7.54;100.00;98759.59;4178763;28;20238;-49
2023/03/21 01:20:35;;;;;;;3.58;2.78;;;;;;;7.49;100.00;98753.19;4177645;28;20687;-50
2023/03/21 01:22:37;;;;;;;4.10;2.88;;;;;;;7.45;100.00;98747.34;4177620;28;20196;-49
2023/03/21 01:24:39;;;;;;;3.25;2.47;;;;;;;7.48;100.00;98751.53;4174723;28;20324;-50
2023/03/21 01:26:53;;;;;;;3.30;2.42;;;;;;;7.48;100.00;98748.78;4167548;28;20343;-50
2023/03/21 01:28:54;;;;;;;4.20;2.50;;;;;;;7.47;100.00;98749.81;4176335;28;20290;-49
2023/03/21 01:31:01;;;;;;;3.72;3.00;;;;;;;7.60;100.00;98750.53;4160607;28;20216;-49
2023/03/21 01:33:03;;;;;;;4.03;2.67;;;;;;;7.68;100.00;98746.69;4174922;28;20228;-49
2023/03/21 01:35:05;;;;;;;4.05;2.53;;;;;;;7.34;100.00;98747.22;4191290;28;20217;-50
2023/03/21 01:37:07;;;;;;;4.68;3.50;;;;;;;7.43;100.00;98743.19;4198147;28;20297;-49
2023/03/21 01:39:09;;;;;;;4.35;2.92;;;;;;;7.50;100.00;98746.66;4175865;28;20222;-49
2023/03/21 01:41:17;;;;;;;3.83;2.50;;;;;;;7.47;100.00;98744.38;4175269;28;20295;-48
2023/03/21 01:43:25;;;;;;;5.38;2.33;;;;;;;7.45;100.00;98744.63;4177972;28;20231;-48
2023/03/21 01:46:03;;;;;;;3.15;2.10;;;;;;;7.48;100.00;98741.44;4176764;28;20299;-50
2023/03/21 01:48:05;;;;;;;3.95;2.47;;;;;;;7.46;100.00;98742.72;4176460;28;20204;-49
2023/03/21 01:50:07;;;;;;;3.95;3.00;;;;;;;7.51;100.00;98734.72;4173400;28;20203;-49
2023/03/21 01:52:11;;;;;;;2.65;2.30;;;;;;;7.55;100.00;98738.66;4152957;28;20626;-49
2023/03/21 01:54:28;;;;;;;2.90;2.45;;;;;;;7.55;100.00;98727.78;4175690;28;20219;-49
2023/03/21 01:56:32;;;;;;;2.78;1.83;;;;;;;7.57;100.00;98733.81;4175439;28;20290;-49
2023/03/21 01:58:34;;;;;;;3.03;2.58;;;;;;;7.54;100.00;98735.09;4169337;28;20605;-49
2023/03/21 02:00:40;;;;;;;3.30;2.33;;;;;;;7.53;100.00;98732.59;4167942;28;20752;-49
2023/03/21 02:02:50;;;;;;;4.72;2.92;;;;;;;7.56;100.00;98730.25;4175866;28;20628;-49
2023/03/21 02:04:57;;;;;;;8.63;2.65;;;;;;;7.56;100.00;98722.09;4177080;28;20210;-50
2023/03/21 02:07:13;;;;;;;3.10;2.50;;;;;;;7.58;100.00;98721.88;4176854;28;20540;-49
2023/03/21 02:09:18;;;;;;;3.92;2.42;;;;;;;7.60;100.00;98726.03;4193797;28;21309;-49
2023/03/21 02:11:21;;;;;;;5.78;2.45;;;;;;;7.58;100.00;98716.41;4169776;28;20299;-51
2023/03/21 02:13:25;;;;;;;2.15;1.80;;;;;;;7.61;100.00;98721.44;4171515;28;21174;-49
2023/03/21 02:15:27;;;;;;;3.92;2.72;;;;;;;7.59;100.00;98721.66;4158209;28;20228;-49
2023/03/21 02:17:41;;;;;;;5.20;2.90;;;;;;;7.59;100.00;98718.06;4191324;28;20295;-49
2023/03/21 02:20:07;;;;;;;3.15;2.13;;;;;;;7.58;100.00;98709.09;4175293;28;20649;-49
2023/03/21 02:22:15;;;;;;;2.70;2.40;;;;;;;7.61;100.00;98710.53;4175072;28;20642;-49
2023/03/21 02:25:12;;;;;;;3.60;2.75;;;;;;;7.62;100.00;98714.91;4174121;28;20315;-49
2023/03/21 02:27:24;;;;;;;3.45;2.25;;;;;;;7.78;100.00;98712.44;4181158;28;20206;-49
2023/03/21 02:29:51;;;;;;;7.00;2.63;;;;;;;7.41;100.00;98701.75;4169599;28;20545;-49
2023/03/21 02:32:15;;;;;;;3.38;2.50;;;;;;;7.38;100.00;98697.59;4177601;28;20291;-49
2023/03/21 02:35:05;;;;;;;3.80;2.63;;;;;;;7.29;100.00;98689.94;4144343;28;20293;-49
2023/03/21 02:37:40;;;;;;;5.00;3.30;;;;;;;7.18;100.00;98690.66;4168508;28;20294;-49
2023/03/21 02:40:31;;;;;;;5.20;2.60;;;;;;;7.30;100.00;98680.72;4174229;28;20215;-50
2023/03/21 02:42:39;;;;;;;4.50;3.22;;;;;;;7.30;100.00;98688.88;4094229;28;20326;-50
2023/03/21 02:44:53;;;;;;;4.55;3.55;;;;;;;7.35;100.00;98684.41;4140649;28;20231;-49
2023/03/21 02:47:00;;;;;;;5.47;3.03;;;;;;;7.29;100.00;98679.03;4167983;28;20239;-49
2023/03/21 02:49:15;;;;;;;3.40;3.10;;;;;;;7.33;100.00;98683.81;4190652;28;20264;-49
2023/03/21 02:51:20;;;;;;;3.58;2.85;;;;;;;7.08;100.00;98685.72;4176763;28;20696;-50
2023/03/21 02:53:24;;;;;;;3.33;3.03;;;;;;;7.06;100.00;98678.84;4175990;28;20232;-50
2023/03/21 02:55:29;;;;;;;4.28;3.17;;;;;;;7.12;100.00;98676.06;4176152;28;20223;-49
2023/03/21 02:57:32;;;;;;;3.65;2.95;;;;;;;7.39;100.00;98676.63;4191668;28;20292;-49
2023/03/21 02:59:46;;;;;;;4.00;2.58;;;;;;;7.36;100.00;98683.34;4161986;28;20201;-49
2023/03/21 03:01:57;;;;;;;4.22;3.20;;;;;;;7.37;100.00;98686.91;4191245;28;20273;-49
2023/03/21 03:03:59;;;;;;;4.45;3.05;;;;;;;7.36;100.00;98682.53;4160176;28;20677;-50
2023/03/21 03:06:03;;;;;;;5.00;2.88;;;;;;;7.48;100.00;98686.19;4172973;28;20216;-50
2023/03/21 03:08:23;;;;;;;3.35;3.13;;;;;;;7.36;100.00;98672.47;4173732;28;20247;-50
2023/03/21 03:11:04;;;;;;;9.95;3.25;;;;;;;7.26;100.00;98671.31;4176016;28;20264;-49
2023/03/21 03:13:16;;;;;;;5.20;3.67;;;;;;;7.24;100.00;98668.84;4175836;28;20230;-49
2023/03/21 03:15:30;;;;;;;7.47;3.63;;;;;;;7.32;100.00;98670.41;4168993;28;20227;-49
2023/03/21 03:17:43;;;;;;;10.63;3.50;;;;;;;7.23;100.00;98674.50;4167207;28;21081;-49
2023/03/21 03:20:12;;;;;;;4.47;3.38;;;;;;;7.21;100.00;98665.75;4166382;28;20275;-49
2023/03/21 03:22:27;;;;;;;4.72;3.72;;;;;;;7.22;100.00;98664.69;4170970;28;21024;-50
2023/03/21 03:24:44;;;;;;;4.53;2.80;;;;;;;7.20;100.00;98661.31;4172921;28;20262;-49
2023/03/21 03:26:53;;;;;;;5.45;3.30;;;;;;;7.17;100.00;98672.69;4174564;28;20261;-50
2023/03/21 03:28:58;;;;;;;7.25;2.50;;;;;;;7.18;100.00;98672.47;4174622;28;20209;-50
2023/03/21 03:31:00;;;;;;;4.57;2.97;;;;;;;7.16;100.00;98671.84;4175056;28;20299;-48
2023/03/21 03:33:10;;;;;;;4.38;2.60;;;;;;;7.10;100.00;98664.56;4159512;28;20726;-49
2023/03/21 03:35:14;;;;;;;3.47;2.88;;;;;;;7.04;100.00;98667.38;4156004;28;20307;-49
2023/03/21 03:37:20;;;;;;;3.72;2.80;;;;;;;7.00;100.00;98671.56;4171405;28;20466;-49
2023/03/21 03:39:28;;;;;;;3.25;2.95;;;;;;;6.98;100.00;98677.25;4175498;28;20204;-49
2023/03/21 03:41:32;;;;;;;4.05;2.80;;;;;;;6.98;100.00;98668.25;4178525;28;20302;-49
2023/03/21 03:43:57;;;;;;;4.32;3.17;;;;;;;7.01;100.00;98673.22;4175931;28;20234;-49
2023/03/21 03:46:11;;;;;;;2.78;2.58;;;;;;;7.05;100.00;98674.47;4173778;28;20211;-48
2023/03/21 03:48:21;;;;;;;3.50;2.20;;;;;;;7.04;100.00;98673.66;4192648;28;20225;-49
2023/03/21 03:50:34;;;;;;;2.67;2.30;;;;;;;7.10;100.00;98671.91;4172874;28;20677;-49
2023/03/21 03:52:40;;;;;;;2.13;2.03;;;;;;;7.08;100.00;98679.47;4175431;28;20212;-50
2023/03/21 03:54:56;;;;;;;2.65;2.45;;;;;;;7.08;100.00;98679.47;4170680;28;20663;-49
2023/03/21 03:56:58;;;;;;;3.05;2.15;;;;;;;7.07;100.00;98694.09;4194034;28;20303;-49
2023/03/21 03:59:01;;;;;;;2.13;1.90;;;;;;;7.08;100.00;98695.81;4157601;28;21907;-50
2023/03/21 04:01:03;;;;;;;2.90;2.38;;;;;;;7.14;100.00;98689.44;4152325;28;20223;-49
2023/03/21 04:03:05;;;;;;;6.22;2.85;;;;;;;7.14;100.00;98689.44;4168605;28;20208;-49
2023/03/21 04:05:08;;;;;;;6.18;2.40;;;;;;;7.22;100.00;98691.88;4174006;28;20199;-49
2023/03/21 04:07:09;;;;;;;2.45;2.25;;;;;;;7.11;100.00;98701.63;4167434;28;20217;-49
2023/03/21 04:09:12;;;;;;;2.85;2.40;;;;;;;7.10;100.00;98693.69;4190611;28;20217;-49
2023/03/21 04:11:26;;;;;;;4.55;2.95;;;;;;;7.07;100.00;98688.66;4159532;28;20239;-50
2023/03/21 04:13:28;;;;;;;1.98;1.77;;;;;;;7.11;100.00;98684.44;4171860;28;20805;-49
2023/03/21 04:15:29;;;;;;;3.80;3.22;;;;;;;7.16;100.00;98692.78;4173652;28;21113;-49
2023/03/21 04:17:31;;;;;;;4.53;2.10;;;;;;;7.16;100.00;98687.34;4172749;28;20231;-50
2023/03/21 04:19:33;;;;;;;2.47;2.28;;;;;;;7.17;100.00;98684.38;4174565;28;20244;-49
2023/03/21 04:21:35;;;;;;;4.30;2.53;;;;;;;7.18;100.00;98674.34;4166814;28;20235;-49
2023/03/21 04:23:37;;;;;;;3.00;2.30;;;;;;;7.23;100.00;98677.22;4174924;28;20231;-48
2023/03/21 04:25:39;;;;;;;3.33;2.97;;;;;;;7.15;100.00;98666.63;4166571;28;20212;-50
2023/03/21 04:27:56;;;;;;;6.55;2.55;;;;;;;7.21;100.00;98669.28;4164448;28;20208;-49
2023/03/21 04:29:59;;;;;;;4.25;3.47;;;;;;;7.16;100.00;98668.28;4188731;28;20234;-48
2023/03/21 04:32:00;;;;;;;3.88;3.55;;;;;;;7.02;100.00;98669.47;4190013;28;20862;-48
2023/03/21 04:34:08;;;;;;;7.22;3.10;;;;;;;7.07;100.00;98677.78;4174566;28;20713;-49
2023/03/21 04:36:23;;;;;;;4.88;3.13;;;;;;;6.90;100.00;98672.06;4152134;28;20312;-48
2023/03/21 04:38:29;;;;;;;3.28;3.00;;;;;;;6.99;100.00;98672.63;4172677;28;20211;-50
2023/03/21 04:40:31;;;;;;;4.60;3.08;;;;;;;7.06;100.00;98665.25;4170618;28;20649;-49
2023/03/21 04:42:33;;;;;;;3.67;3.38;;;;;;;7.03;100.00;98671.97;4174533;28;20208;-49
2023/03/21 04:44:35;;;;;;;5.18;3.53;;;;;;;7.03;100.00;98671.16;4188924;28;20357;-49
2023/03/21 04:46:38;;;;;;;3.88;3.40;;;;;;;7.04;100.00;98673.66;4173914;28;20243;-49
2023/03/21 04:48:40;;;;;;;5.40;2.90;;;;;;;7.08;100.00;98668.59;4170589;28;20677;-50
2023/03/21 04:50:41;;;;;;;4.25;3.33;;;;;;;7.07;100.00;98662.31;4174225;28;20208;-49
2023/03/21 04:52:43;;;;;;;3.15;2.60;;;;;;;7.03;100.00;98669.25;4170834;28;20248;-50
2023/03/21 04:54:46;;;;;;;4.13;3.72;;;;;;;7.02;100.00;98659.41;4173513;28;20199;-49
2023/03/21 04:56:50;;;;;;;2.88;2.30;;;;;;;7.04;100.00;98661.91;4174308;28;20307;-50
2023/03/21 04:58:52;;;;;;;2.80;2.50;;;;;;;7.01;100.00;98655.03;4157909;28;20551;-49
2023/03/21 05:00:56;;;;;;;3.35;2.85;;;;;;;7.00;100.00;98660.69;4176467;28;20285;-50
2023/03/21 05:02:58;;;;;;;3.33;3.03;;;;;;;6.97;100.00;98658.44;4173812;28;20662;-49
2023/03/21 05:05:01;;;;;;;3.83;3.33;;;;;;;6.98;100.00;98660.09;4173940;28;20247;-49
2023/03/21 05:07:03;;;;;;;4.85;2.92;;;;;;;6.97;100.00;98666.59;4155070;28;20228;-49
2023/03/21 05:09:05;;;;;;;4.63;2.97;;;;;;;6.94;100.00;98658.88;4168365;28;20630;-49
2023/03/21 05:11:07;;;;;;;4.40;2.90;;;;;;;6.91;100.00;98667.47;4157292;28;20789;-48
2023/03/21 05:13:09;;;;;;;3.05;2.65;;;;;;;6.92;100.00;98670.00;4172949;28;20678;-49
2023/03/21 05:15:12;;;;;;;2.90;2.67;;;;;;;6.88;100.00;98659.78;4191063;28;20658;-50
2023/03/21 05:17:21;;;;;;;6.50;3.10;;;;;;;6.83;100.00;98660.44;4172625;28;20200;-50
2023/03/21 05:19:33;;;;;;;5.28;3.08;;;;;;;6.80;100.00;98654.59;4175288;28;20199;-49
2023/03/21 05:21:42;;;;;;;3.25;2.40;;;;;;;6.75;100.00;98655.28;4158667;28;20201;-49
2023/03/21 05:23:44;;;;;;;4.80;3.33;;;;;;;6.80;100.00;98657.31;4166819;28;20232;-50
2023/03/21 05:25:45;;;;;;;3.78;2.92;;;;;;;6.73;100.00;98648.38;4165052;28;20211;-49
2023/03/21 05:27:52;;;;;;;3.35;2.67;;;;;;;6.72;100.00;98657.59;4170308;28;20693;-49
2023/03/21 05:29:54;;;;;;;3.33;2.40;;;;;;;6.74;100.00;98650.06;4172911;28;20200;-49
2023/03/21 05:31:57;;;;;;;2.70;2.50;;;;;;;6.73;100.00;98648.38;4172152;28;20274;-49
2023/03/21 05:33:58;;;;;;;5.00;3.15;;;;;;;6.75;100.00;98658.00;4174819;28;20318;-49
2023/03/21 05:36:00;;;;;;;4.35;2.40;;;;;;;6.76;100.00;98653.41;4169937;28;20236;-49
2023/03/21 05:38:02;;;;;;;4.18;2.85;;;;;;;6.79;100.00;98653.78;4166836;28;20208;-49
2023/03/21 05:40:06;;;;;;;4.45;2.45;;;;;;;6.83;100.00;98654.19;4174092;28;20212;-49
2023/03/21 05:42:08;;;;;;;3.75;2.78;;;;;;;6.80;100.00;98646.44;4174011;28;20251;-49
2023/03/21 05:44:09;;;;;;;2.92;2.63;;;;;;;6.73;100.00;98651.09;4173156;28;20262;-49
2023/03/21 05:46:11;;;;;;;5.35;3.22;;;;;;;6.71;100.00;98650.50;4171006;28;20213;-50
2023/03/21 05:48:13;;;;;;;4.13;2.65;;;;;;;6.73;100.00;98648.38;4190036;28;20203;-49
2023/03/21 05:50:15;;;;;;;6.78;4.13;;;;;;;6.79;100.00;98642.06;4169314;28;20578;-50
2023/03/21 05:52:17;;;;;;;3.85;3.55;;;;;;;6.74;100.00;98644.63;4191142;28;20200;-50
2023/03/21 05:54:18;;;;;;;4.38;2.72;;;;;;;6.74;100.00;98648.19;4174819;28;21100;-49
2023/03/21 05:56:20;;;;;;;3.42;3.10;;;;;;;6.80;100.00;98649.16;4166864;28;20298;-50
2023/03/21 05:58:22;;;;;;;3.38;3.05;;;;;;;6.77;100.00;98647.72;4171241;28;20232;-49
2023/03/21 06:00:24;;;;;;;3.13;2.78;;;;;;;6.75;100.00;98649.03;4153523;28;20236;-49
2023/03/21 06:02:26;;;;;;;4.68;3.20;;;;;;;6.71;100.00;98650.50;4170805;28;20208;-48
2023/03/21 06:04:28;;;;;;;4.07;3.13;;;;;;;6.71;100.00;98651.34;4168541;28;20228;-48
2023/03/21 06:06:29;;;;;;;3.72;3.35;;;;;;;6.75;100.00;98651.75;4172254;28;20235;-49
2023/03/21 06:08:31;;;;;;;7.15;3.30;;;;;;;6.78;100.00;98652.13;4157457;28;20703;-50
2023/03/21 06:10:35;;;;;;;4.57;3.30;;;;;;;6.83;100.00;98654.19;4166972;28;20277;-48
2023/03/21 06:12:38;;;;;;;6.93;3.55;;;;;;;6.88;100.00;98659.78;4169157;28;20862;-50
2023/03/21 06:14:40;;;;;;;3.45;2.28;;;;;;;6.87;100.00;98660.81;4152168;28;20259;-51
2023/03/21 06:16:44;;;;;;;3.28;3.08;;;;;;;6.87;100.00;98661.66;4162958;28;20204;-50
2023/03/21 06:18:46;;;;;;;3.33;3.03;;;;;;;6.95;100.00;98666.00;4171032;28;20231;-49
2023/03/21 06:20:55;;;;;;;3.05;2.30;;;;;;;6.99;100.00;98670.75;4172434;28;20204;-48
2023/03/21 06:22:57;;;;;;;3.50;2.35;;;;;;;6.92;100.00;98671.88;4172358;28;20603;-50
2023/03/21 06:25:09;;;;;;;3.97;3.35;;;;;;;6.90;100.00;98668.53;4172853;28;20735;-48
2023/03/21 06:27:11;;;;;;;5.80;3.15;;;;;;;6.94;100.00;98673.31;4174346;28;20208;-49
2023/03/21 06:29:13;;;;;;;5.75;3.50;;;;;;;6.95;100.00;98674.16;4157939;28;20201;-49
2023/03/21 06:31:15;;;;;;;3.80;3.42;;;;;;;6.98;100.00;98673.69;4153127;28;20213;-49
2023/03/21 06:33:19;;;;;;;4.43;3.47;;;;;;;7.05;100.00;98674.47;4172842;28;20306;-49
2023/03/21 06:35:21;;;;;;;6.47;4.35;;;;;;;6.96;100.00;98671.19;4173005;28;20216;-48
2023/03/21 06:37:25;;;;;;;5.00;4.60;;;;;;;6.96;100.00;98671.19;4177035;28;20782;-48
2023/03/21 06:39:26;;;;;;;8.35;5.63;;;;;;;7.00;100.00;98671.56;4156347;28;20244;-48
2023/03/21 06:41:28;;;;;;;8.20;5.18;;;;;;;7.11;100.00;98662.69;4170426;28;21517;-48
2023/03/21 06:43:30;;;;;;;4.38;4.00;;;;;;;7.01;100.00;98668.63;4177977;28;20274;-48
2023/03/21 06:45:32;;;;;;;6.05;4.80;;;;;;;7.04;100.00;98667.38;4175309;28;20216;-49
2023/03/21 06:47:34;;;;;;;10.02;5.55;;;;;;;7.14;100.00;98675.84;4171590;28;21285;-49
2023/03/21 06:49:35;;;;;;;5.70;4.93;;;;;;;6.99;100.00;98675.34;4176620;28;20299;-48
2023/03/21 06:51:37;;;;;;;4.60;4.07;;;;;;;7.08;100.00;98668.59;4172956;28;20263;-48
2023/03/21 06:53:40;;;;;;;5.57;4.95;;;;;;;7.07;100.00;98665.03;4174217;28;20323;-48
2023/03/21 06:55:42;;;;;;;5.25;4.70;;;;;;;7.22;100.00;98664.69;4174559;28;20215;-48
2023/03/21 06:57:44;;;;;;;4.78;4.18;;;;;;;7.19;100.00;98659.66;4158462;28;20209;-48
2023/03/21 06:59:50;;;;;;;6.60;5.30;;;;;;;7.23;100.00;98666.34;4175493;28;20267;-48
2023/03/21 07:01:52;;;;;;;6.70;4.65;;;;;;;7.23;100.00;98666.34;4171957;28;20367;-48
2023/03/21 07:03:56;;;;;;;5.10;4.60;;;;;;;7.38;100.00;98669.53;4159151;28;20285;-48
2023/03/21 07:05:58;;;;;;;7.30;5.03;;;;;;;7.47;100.00;98665.44;4168390;28;20312;-49
2023/03/21 07:08:00;;;;;;;5.40;4.53;;;;;;;7.64;100.00;98663.78;4171832;28;20697;-48
2023/03/21 07:10:03;;;;;;;6.07;4.57;;;;;;;7.78;100.00;98668.00;4168236;28;20294;-48
2023/03/21 07:12:04;;;;;;;5.93;4.78;;;;;;;7.90;100.00;98663.44;4169024;28;20200;-48
2023/03/21 07:14:06;;;;;;;7.35;4.63;;;;;;;8.02;100.00;98664.34;4174411;28;20309;-49
2023/03/21 07:16:08;;;;;;;4.40;3.90;;;;;;;8.17;100.00;98662.03;4168225;28;20263;-48
2023/03/21 07:18:10;;;;;;;8.75;4.47;;;;;;;8.28;100.00;98666.72;4172064;28;20239;-49
2023/03/21 07:20:12;;;;;;;10.48;5.22;;;;;;;8.42;100.00;98668.19;4168726;28;20216;-48
2023/03/21 07:22:14;;;;;;;5.30;4.68;;;;;;;8.50;100.00;98676.84;4174230;28;20636;-49
2023/03/21 07:24:16;;;;;;;5.05;4.65;;;;;;;8.38;99.49;98667.00;4187610;28;20290;-48
2023/03/21 07:26:18;;;;;;;5.30;4.50;;;;;;;8.25;99.36;98667.19;4170388;28;20452;-48
2023/03/21 07:28:20;;;;;;;6.22;4.65;;;;;;;8.38;99.97;98669.72;4173681;28;20209;-48
2023/03/21 07:30:22;;;;;;;6.38;4.57;;;;;;;8.49;100.00;98669.75;4170613;28;20204;-49
2023/03/21 07:32:28;;;;;;;8.70;3.92;;;;;;;8.44;99.81;98664.19;4171076;28;21023;-49
2023/03/21 07:34:31;;;;;;;6.35;3.95;;;;;;;8.49;99.74;98669.75;4169707;28;20235;-47
2023/03/21 07:36:33;;;;;;;9.93;5.00;;;;;;;8.62;99.85;98666.00;4170507;28;20211;-48
2023/03/21 07:38:35;;;;;;;6.00;4.38;;;;;;;8.71;99.56;98667.31;4153612;28;20300;-49
2023/03/21 07:40:36;;;;;;;5.05;4.65;;;;;;;8.81;100.00;98667.56;4146828;28;20227;-48
2023/03/21 07:42:40;;;;;;;7.68;4.28;;;;;;;8.91;99.55;98667.81;4169569;28;20666;-48
2023/03/21 07:44:42;;;;;;;4.80;4.43;;;;;;;8.98;99.18;98663.06;4165562;28;20224;-49
2023/03/21 07:46:44;;;;;;;7.50;4.10;;;;;;;8.81;98.14;98670.31;4170573;28;20278;-50
2023/03/21 07:48:58;;;;;;;5.60;4.70;;;;;;;8.88;99.08;98665.56;4173813;28;20212;-48
2023/03/21 07:51:01;;;;;;;6.43;4.10;;;;;;;8.93;99.32;98666.50;4175856;28;20211;-48
2023/03/21 07:53:02;;;;;;;5.07;4.57;;;;;;;8.99;99.01;98670.19;4192390;28;20302;-48
2023/03/21 07:55:08;;;;;;;5.95;4.68;;;;;;;9.13;98.96;98671.63;4177524;28;20693;-49
2023/03/21 07:57:21;;;;;;;7.32;4.88;;;;;;;9.18;99.67;98669.84;4159316;28;20343;-48
2023/03/21 07:59:23;;;;;;;6.50;4.30;;;;;;;9.31;98.71;98674.22;4173918;28;20299;-49
2023/03/21 08:01:25;;;;;;;10.60;4.82;;;;;;;9.36;98.11;98677.09;4171784;28;20215;-48
2023/03/21 08:03:28;;;;;;;9.73;5.45;;;;;;;9.46;98.14;98674.56;4176026;28;20712;-48
2023/03/21 08:05:45;;;;;;;6.47;5.72;;;;;;;9.49;98.33;98677.66;4174040;28;20230;-47
2023/03/21 08:07:47;;;;;;;5.30;3.15;;;;;;;9.60;98.21;98678.72;4188035;28;20208;-49
2023/03/21 08:09:49;;;;;;;3.97;3.67;;;;;;;9.69;98.32;98680.03;4174747;28;20662;-48
2023/03/21 08:11:51;;;;;;;9.02;4.13;;;;;;;9.72;97.67;98685.00;4176627;28;20253;-48
2023/03/21 08:13:54;;;;;;;7.07;4.78;;;;;;;9.76;97.62;98678.00;4176531;28;20238;-49
2023/03/21 08:15:56;;;;;;;5.85;4.80;;;;;;;9.80;97.89;98674.53;4171041;28;20259;-48
2023/03/21 08:17:59;;;;;;;5.13;4.60;;;;;;;9.70;98.11;98677.06;4172949;28;20208;-48
2023/03/21 08:20:10;;;;;;;10.13;4.97;;;;;;;9.70;97.51;98678.94;4167062;28;20255;-49
2023/03/21 08:22:12;;;;;;;5.05;4.63;;;;;;;9.69;97.34;98677.28;4171702;28;20203;-49
2023/03/21 08:24:15;;;;;;;8.40;5.07;;;;;;;9.63;96.92;98672.78;4172396;28;20224;-49
2023/03/21 08:26:17;;;;;;;9.05;3.95;;;;;;;9.81;97.27;98669.91;4174820;28;20211;-50
2023/03/21 08:28:19;;;;;;;5.97;4.57;;;;;;;9.65;97.35;98670.63;4174180;28;20242;-49
2023/03/21 08:30:25;;;;;;;6.10;4.45;;;;;;;9.84;96.54;98669.41;4173788;28;20204;-48
2023/03/21 08:32:31;;;;;;;5.47;4.80;;;;;;;9.86;96.53;98670.00;4192726;28;20204;-48
2023/03/21 08:34:34;;;;;;;7.60;4.72;;;;;;;9.85;96.72;98671.06;4171833;28;20755;-49
2023/03/21 08:36:36;;;;;;;7.85;4.88;;;;;;;9.90;95.68;98673.91;4176761;28;20649;-49
2023/03/21 08:38:38;;;;;;;6.82;4.97;;;;;;;9.90;96.15;98672.03;4172807;28;20203;-49
2023/03/21 08:40:40;;;;;;;5.82;5.03;;;;;;;9.80;95.74;98669.06;4176713;28;20219;-49
2023/03/21 08:42:49;;;;;;;7.30;5.32;;;;;;;9.74;96.79;98674.69;4173367;28;20216;-48
2023/03/21 08:44:58;;;;;;;12.45;5.05;;;;;;;9.78;96.40;98681.31;4166632;28;20200;-48
2023/03/21 08:47:00;;;;;;;4.05;3.40;;;;;;;9.92;96.26;98671.75;4175326;28;20208;-48
2023/03/21 08:49:02;;;;;;;5.30;3.90;;;;;;;9.88;95.80;98674.16;4175162;28;20247;-49
2023/03/21 08:51:04;;;;;;;8.48;4.55;;;;;;;9.81;95.90;98670.72;4171037;28;20208;-50
2023/03/21 08:53:24;;;;;;;7.20;4.93;;;;;;;9.93;95.07;98673.41;4171295;28;20252;-49
2023/03/21 08:55:32;;;;;;;5.85;4.20;;;;;;;9.90;95.37;98668.44;4170155;28;20286;-48
2023/03/21 08:57:33;;;;;;;7.20;4.45;;;;;;;9.88;95.96;98665.13;4167299;28;20231;-50
2023/03/21 08:59:35;;;;;;;6.55;4.25;;;;;;;9.98;95.70;98670.78;4170104;28;20228;-48
2023/03/21 09:01:37;;;;;;;8.02;5.07;;;;;;;10.11;95.86;98670.53;4171095;28;20243;-49
2023/03/21 09:03:39;;;;;;;4.70;4.30;;;;;;;10.07;95.33;98666.66;4169907;28;20228;-49
2023/03/21 09:05:40;;;;;;;8.60;4.18;;;;;;;10.18;95.55;98668.50;4167151;28;20208;-49
2023/03/21 09:07:43;;;;;;;5.32;4.43;;;;;;;10.33;94.88;98671.50;4165300;28;20214;-49
2023/03/21 09:09:45;;;;;;;6.82;4.40;;;;;;;10.30;95.53;98664.66;4168924;28;20207;-49
2023/03/21 09:11:58;;;;;;;4.85;4.32;;;;;;;10.37;95.19;98665.34;4170419;28;20641;-48
2023/03/21 09:14:00;;;;;;;4.63;4.22;;;;;;;10.41;95.23;98661.00;4168792;28;20224;-49
2023/03/21 09:16:03;;;;;;;5.10;4.60;;;;;;;10.49;95.23;98668.00;4161817;28;20234;-48
2023/03/21 09:18:12;;;;;;;6.90;4.00;;;;;;;10.63;94.56;98661.16;4162581;28;20596;-48
2023/03/21 09:20:29;;;;;;;4.90;4.28;;;;;;;10.61;95.36;98666.03;4170728;28;20318;-48
2023/03/21 09:22:31;;;;;;;5.07;3.97;;;;;;;10.68;94.94;98662.06;4169928;28;20569;-49
2023/03/21 09:24:33;;;;;;;6.20;4.80;;;;;;;10.68;94.75;98673.00;4165606;28;20347;-48
2023/03/21 09:26:35;;;;;;;5.85;3.78;;;;;;;10.76;95.66;98669.03;4168124;28;20236;-48
2023/03/21 09:28:38;;;;;;;5.95;4.22;;;;;;;10.73;96.07;98664.03;4152580;28;20255;-49
2023/03/21 09:30:41;;;;;;;8.90;4.47;;;;;;;10.69;97.86;98668.38;4172968;28;20215;-48
2023/03/21 09:32:47;;;;;;;4.45;4.05;;;;;;;10.73;97.09;98662.16;4166769;28;20227;-48
2023/03/21 09:34:49;;;;;;;5.72;4.28;;;;;;;10.73;97.21;98664.03;4175737;28;20216;-49
2023/03/21 09:36:55;;;;;;;7.30;4.47;;;;;;;10.72;97.57;98667.88;4172639;28;20585;-49
2023/03/21 09:38:58;;;;;;;4.53;4.00;;;;;;;10.75;97.67;98661.91;4186514;28;20216;-49
2023/03/21 09:41:17;;;;;;;4.63;4.20;;;;;;;10.80;97.92;98665.56;4170854;28;20350;-49
2023/03/21 09:43:56;;;;;;;4.53;3.45;;;;;;;10.85;96.54;98669.19;4157111;28;20311;-49
2023/03/21 09:46:06;;;;;;;5.38;3.78;;;;;;;10.84;96.34;98667.53;4168367;28;20674;-49
2023/03/21 09:48:21;;;;;;;4.05;3.63;;;;;;;10.73;98.90;98664.88;4152820;28;20209;-49
2023/03/21 09:50:27;;;;;;;4.47;3.95;;;;;;;10.85;96.70;98669.19;4170771;28;20208;-49
2023/03/21 09:52:53;;;;;;;4.63;4.10;;;;;;;10.85;98.34;98662.91;4165405;28;20536;-49
2023/03/21 09:54:55;;;;;;;6.47;4.07;;;;;;;10.73;96.41;98669.50;4151691;28;20221;-49